Friday, January 30, 2015, 3:00 PM EST

KUNV, State College, University Park Airport

Location: State College, PA, United States Lat: 40.85
Local Time: 3:00 PM EST (20:00 GMT) Lon: -77.85
Time Zone: US/Eastern Elev: 1240 ft

Show me the last for .
Show Decoded

2015-01-30 13:53 METAR KUNV 301853Z COR 29019G25KT 5SM -SN OVC035 M04/M10 A3004 =
2015-01-30 12:53 METAR KUNV 301753Z 30016G23KT 3SM -SN OVC026 M03/M08 A3003 =
2015-01-30 11:53 METAR KUNV 301653Z 30015G21KT 3SM -SN OVC021 M03/M08 A3003 =
2015-01-30 10:53 METAR KUNV 301553Z 30015KT 5SM BLSN BKN015 OVC021 M04/M07 A3003 =
2015-01-30 09:53 METAR KUNV 301453Z 30015KT 7SM OVC017 M03/M06 A3000 =
2015-01-30 08:53 METAR KUNV 301353Z 32012KT 7SM SCT025 OVC065 M02/M06 A2998 =
2015-01-30 07:53 METAR KUNV 301253Z 32012KT 7SM SCT023 OVC065 M01/M05 A2995 =
2015-01-30 06:53 METAR KUNV 301153Z 31012KT 7SM SCT021 OVC065 M01/M04 A2994 =
2015-01-30 05:53 METAR KUNV 301053Z 29008KT 1SM -SN BR OVC021 M02/M04 A2992 =
2015-01-30 05:35 METAR KUNV 301035Z AUTO 27008KT 3SM -SN SCT017 BKN023 OVC031 M02/M03 A2990 RMK
                 AO2 T10161035 =
2015-01-30 05:15 METAR KUNV 301015Z AUTO 26009G16KT 3SM -SN BKN018 BKN023 OVC042 M01/M03 A2990
                 RMK AO2 T10151035 =
2015-01-30 04:55 METAR KUNV 300955Z AUTO 28009G16KT 10SM -SN SCT016 BKN022 OVC060 M01/M04 A2989
                 RMK AO2 T10151038 =
2015-01-30 04:35 METAR KUNV 300935Z AUTO 27011KT 3SM -SN BKN016 BKN025 OVC039 M02/M03 A2989 RMK
                 AO2 T10161035 =
2015-01-30 03:55 METAR KUNV 300855Z AUTO 28009KT 3SM -SN SCT008 BKN020 OVC090 M02/M03 A2988 RMK
                 AO2 T10171032 =
2015-01-30 03:35 METAR KUNV 300835Z AUTO 28006KT 4SM -SN SCT014 SCT020 OVC090 M01/M03 A2988 RMK
                 AO2 T10151035 =
2015-01-30 03:15 METAR KUNV 300815Z AUTO 28007KT 3SM -SN BKN010 OVC018 M01/M03 A2988 RMK AO2
                 T10151031 =
2015-01-30 02:55 METAR KUNV 300755Z AUTO 28008KT 2SM -SN OVC010 M01/M03 A2988 RMK AO2 T10151030 =
2015-01-30 02:35 METAR KUNV 300735Z AUTO 28009G18KT 4SM -SN SCT011 BKN038 OVC070 M01/M04 A2988
                 RMK AO2 T10091038 =
2015-01-30 02:15 METAR KUNV 300715Z AUTO 30010G18KT 10SM -SN SCT038 BKN045 OVC070 00/M04 A2988
                 RMK AO2 T10051040 =
2015-01-30 01:55 METAR KUNV 300655Z AUTO 28009KT 10SM SCT020 BKN027 OVC041 M01/M03 A2988 RMK AO2
                 T10131032 =
2015-01-30 01:35 METAR KUNV 300635Z AUTO 27004KT 7SM -SN BKN023 OVC031 M02/M03 A2987 RMK AO2
                 T10251033 =
2015-01-30 00:55 METAR KUNV 300555Z AUTO 21008KT 10SM SCT014 SCT020 OVC026 M03/M04 A2984 RMK AO2
                 T10281036 11028 21043 =
2015-01-30 00:35 METAR KUNV 300535Z AUTO 22005KT 4SM -SN BKN016 OVC025 M03/M04 A2983 RMK AO2
                 T10311037 =
2015-01-29 23:55 METAR KUNV 300455Z AUTO 27004KT 4SM UP BKN016 OVC021 M03/M04 A2983 RMK AO2
                 T10301036 =
2015-01-29 23:35 METAR KUNV 300435Z AUTO 22003KT 1 3/4SM -SN SCT008 SCT012 OVC020 M03/M04 A2984
                 RMK AO2 T10311038 =
2015-01-29 23:15 METAR KUNV 300415Z AUTO 20004KT 3SM -SN SCT012 OVC022 M03/M04 A2984 RMK AO2
                 T10321040 =
2015-01-29 22:55 METAR KUNV 300355Z AUTO 19004KT 2 1/2SM -SN SCT010 OVC024 M03/M04 A2984 RMK AO2
                 T10321040 410261158 =
2015-01-29 22:35 METAR KUNV 300335Z AUTO 20005KT 1 1/2SM -SN OVC008 M03/M04 A2985 RMK AO2
                 T10331042 =
2015-01-29 22:15 METAR KUNV 300315Z AUTO 21005KT 1 3/4SM -SN BKN010 OVC023 M03/M04 A2985 RMK AO2
                 T10331043 =
2015-01-29 21:55 METAR KUNV 300255Z AUTO 22005KT 2 1/2SM -SN SCT017 OVC022 M03/M04 A2986 RMK AO2
                 T10331045 =
2015-01-29 20:53 METAR KUNV 300153Z 22005KT 3SM -SN OVC012 M04/M05 A2987 =
2015-01-29 19:53 METAR KUNV 300053Z 22005KT 3SM -DZ OVC014 M04/M05 A2988 =
2015-01-29 18:53 METAR KUNV 292353Z 22003KT 6SM -SN BKN016 OVC021 M04/M05 A2990 =
2015-01-29 18:30 METAR KUNV 292330Z 22007KT 1/2SM OVC010 M04/M06 A2991 =
2015-01-29 17:53 METAR KUNV 292253Z 22007KT 7SM OVC012 M04/M06 A2992 =
2015-01-29 16:53 METAR KUNV 292153Z 22007KT 6SM -SN BKN019 OVC030 M05/M07 A2993 =
2015-01-29 15:53 METAR KUNV 292053Z 20008KT 1SM -SN OVC010 M05/M08 A2993 =
2015-01-29 15:10 METAR KUNV 292010Z 23006KT 1SM -SN OVC018 M03/M14 A2995 =

Support USWX by starting your Amazon purchase here.